sensor_id;sensor_type;location;lat;lon;timestamp;P1;durP1;ratioP1;P2;durP2;ratioP2
27744;SDS011;61387;48.112;8.616;2022-10-26T00:01:11;13.13;;;7.60;;
27744;SDS011;61387;48.112;8.616;2022-10-26T00:03:39;14.13;;;7.47;;
27744;SDS011;61387;48.112;8.616;2022-10-26T00:06:07;12.40;;;7.40;;
27744;SDS011;61387;48.112;8.616;2022-10-26T00:08:38;12.10;;;7.40;;
27744;SDS011;61387;48.112;8.616;2022-10-26T00:11:04;22.87;;;7.10;;
27744;SDS011;61387;48.112;8.616;2022-10-26T00:13:31;15.83;;;6.77;;
27744;SDS011;61387;48.112;8.616;2022-10-26T00:15:57;13.20;;;6.93;;
27744;SDS011;61387;48.112;8.616;2022-10-26T00:18:24;12.57;;;5.47;;
27744;SDS011;61387;48.112;8.616;2022-10-26T00:20:50;12.73;;;6.27;;
27744;SDS011;61387;48.112;8.616;2022-10-26T00:23:16;10.63;;;7.30;;
27744;SDS011;61387;48.112;8.616;2022-10-26T00:25:42;14.40;;;7.47;;
27744;SDS011;61387;48.112;8.616;2022-10-26T00:28:08;9.80;;;6.50;;
27744;SDS011;61387;48.112;8.616;2022-10-26T00:30:37;11.80;;;6.67;;
27744;SDS011;61387;48.112;8.616;2022-10-26T00:33:03;15.83;;;6.73;;
27744;SDS011;61387;48.112;8.616;2022-10-26T00:35:29;12.57;;;6.23;;
27744;SDS011;61387;48.112;8.616;2022-10-26T00:37:55;9.70;;;5.97;;
27744;SDS011;61387;48.112;8.616;2022-10-26T00:40:21;10.17;;;5.50;;
27744;SDS011;61387;48.112;8.616;2022-10-26T00:42:54;11.60;;;6.30;;
27744;SDS011;61387;48.112;8.616;2022-10-26T00:45:27;13.00;;;6.70;;
27744;SDS011;61387;48.112;8.616;2022-10-26T00:47:57;14.37;;;6.70;;
27744;SDS011;61387;48.112;8.616;2022-10-26T00:50:28;11.70;;;5.80;;
27744;SDS011;61387;48.112;8.616;2022-10-26T00:52:57;11.63;;;5.73;;
27744;SDS011;61387;48.112;8.616;2022-10-26T00:55:26;10.50;;;5.93;;
27744;SDS011;61387;48.112;8.616;2022-10-26T00:57:55;9.47;;;6.07;;
27744;SDS011;61387;48.112;8.616;2022-10-26T01:00:22;11.40;;;6.40;;
27744;SDS011;61387;48.112;8.616;2022-10-26T01:02:47;8.37;;;5.70;;
27744;SDS011;61387;48.112;8.616;2022-10-26T01:05:16;10.73;;;6.33;;
27744;SDS011;61387;48.112;8.616;2022-10-26T01:07:42;13.10;;;6.63;;
27744;SDS011;61387;48.112;8.616;2022-10-26T01:10:09;12.03;;;6.70;;
27744;SDS011;61387;48.112;8.616;2022-10-26T01:12:35;14.03;;;6.70;;
27744;SDS011;61387;48.112;8.616;2022-10-26T01:15:02;12.67;;;6.83;;
27744;SDS011;61387;48.112;8.616;2022-10-26T01:17:32;11.47;;;6.87;;
27744;SDS011;61387;48.112;8.616;2022-10-26T01:20:33;15.60;;;7.53;;
27744;SDS011;61387;48.112;8.616;2022-10-26T01:26:01;13.60;;;7.87;;
27744;SDS011;61387;48.112;8.616;2022-10-26T01:31:30;11.33;;;6.77;;
27744;SDS011;61387;48.112;8.616;2022-10-26T01:34:05;10.80;;;6.50;;
27744;SDS011;61387;48.112;8.616;2022-10-26T01:36:41;11.80;;;6.30;;
27744;SDS011;61387;48.112;8.616;2022-10-26T01:39:20;11.03;;;6.07;;
27744;SDS011;61387;48.112;8.616;2022-10-26T01:41:52;9.70;;;6.00;;
27744;SDS011;61387;48.112;8.616;2022-10-26T01:44:29;14.60;;;7.13;;
27744;SDS011;61387;48.112;8.616;2022-10-26T01:47:03;11.17;;;6.10;;
27744;SDS011;61387;48.112;8.616;2022-10-26T01:49:34;11.80;;;5.73;;
27744;SDS011;61387;48.112;8.616;2022-10-26T01:52:03;9.10;;;5.70;;
27744;SDS011;61387;48.112;8.616;2022-10-26T01:54:29;8.63;;;5.40;;
27744;SDS011;61387;48.112;8.616;2022-10-26T01:56:56;10.73;;;6.00;;
27744;SDS011;61387;48.112;8.616;2022-10-26T02:04:52;9.67;;;6.00;;
27744;SDS011;61387;48.112;8.616;2022-10-26T02:07:34;12.27;;;5.93;;
27744;SDS011;61387;48.112;8.616;2022-10-26T02:12:42;7.27;;;4.63;;
27744;SDS011;61387;48.112;8.616;2022-10-26T02:15:20;10.10;;;3.97;;
27744;SDS011;61387;48.112;8.616;2022-10-26T02:17:58;10.17;;;4.80;;
27744;SDS011;61387;48.112;8.616;2022-10-26T02:20:50;11.17;;;5.00;;
27744;SDS011;61387;48.112;8.616;2022-10-26T02:23:17;8.80;;;5.47;;
27744;SDS011;61387;48.112;8.616;2022-10-26T02:25:46;10.50;;;5.30;;
27744;SDS011;61387;48.112;8.616;2022-10-26T02:28:17;10.27;;;5.37;;
27744;SDS011;61387;48.112;8.616;2022-10-26T02:30:45;13.03;;;5.77;;
27744;SDS011;61387;48.112;8.616;2022-10-26T02:33:14;10.63;;;5.63;;
27744;SDS011;61387;48.112;8.616;2022-10-26T02:35:41;10.10;;;5.70;;
27744;SDS011;61387;48.112;8.616;2022-10-26T02:38:09;11.13;;;5.80;;
27744;SDS011;61387;48.112;8.616;2022-10-26T02:40:37;7.13;;;4.50;;
27744;SDS011;61387;48.112;8.616;2022-10-26T02:43:04;8.17;;;3.83;;
27744;SDS011;61387;48.112;8.616;2022-10-26T02:45:33;13.03;;;4.20;;
27744;SDS011;61387;48.112;8.616;2022-10-26T02:48:05;8.57;;;3.73;;
27744;SDS011;61387;48.112;8.616;2022-10-26T02:50:35;6.63;;;3.43;;
27744;SDS011;61387;48.112;8.616;2022-10-26T02:53:21;4.97;;;2.80;;
27744;SDS011;61387;48.112;8.616;2022-10-26T02:55:55;7.10;;;3.07;;
27744;SDS011;61387;48.112;8.616;2022-10-26T02:58:22;6.50;;;2.90;;
27744;SDS011;61387;48.112;8.616;2022-10-26T03:00:52;5.80;;;2.90;;
27744;SDS011;61387;48.112;8.616;2022-10-26T03:03:18;4.53;;;2.63;;
27744;SDS011;61387;48.112;8.616;2022-10-26T03:05:44;5.80;;;2.63;;
27744;SDS011;61387;48.112;8.616;2022-10-26T03:08:10;4.07;;;2.43;;
27744;SDS011;61387;48.112;8.616;2022-10-26T03:10:40;8.77;;;3.10;;
27744;SDS011;61387;48.112;8.616;2022-10-26T03:13:08;4.97;;;2.57;;
27744;SDS011;61387;48.112;8.616;2022-10-26T03:15:34;8.00;;;3.43;;
27744;SDS011;61387;48.112;8.616;2022-10-26T03:18:00;7.20;;;2.87;;
27744;SDS011;61387;48.112;8.616;2022-10-26T03:20:26;7.10;;;3.00;;
27744;SDS011;61387;48.112;8.616;2022-10-26T03:22:52;4.83;;;2.70;;
27744;SDS011;61387;48.112;8.616;2022-10-26T03:25:18;6.07;;;2.93;;
27744;SDS011;61387;48.112;8.616;2022-10-26T03:27:44;4.27;;;2.80;;
27744;SDS011;61387;48.112;8.616;2022-10-26T03:30:10;6.63;;;2.53;;
27744;SDS011;61387;48.112;8.616;2022-10-26T03:32:37;6.07;;;2.70;;
27744;SDS011;61387;48.112;8.616;2022-10-26T03:35:03;7.13;;;3.10;;
27744;SDS011;61387;48.112;8.616;2022-10-26T03:37:29;6.93;;;3.20;;
27744;SDS011;61387;48.112;8.616;2022-10-26T03:39:55;6.90;;;3.27;;
27744;SDS011;61387;48.112;8.616;2022-10-26T03:42:20;6.37;;;3.20;;
27744;SDS011;61387;48.112;8.616;2022-10-26T03:44:46;7.33;;;3.07;;
27744;SDS011;61387;48.112;8.616;2022-10-26T03:47:12;9.37;;;3.40;;
27744;SDS011;61387;48.112;8.616;2022-10-26T03:49:38;7.43;;;3.20;;
27744;SDS011;61387;48.112;8.616;2022-10-26T03:52:04;6.72;;;3.17;;
27744;SDS011;61387;48.112;8.616;2022-10-26T03:54:30;6.37;;;3.20;;
27744;SDS011;61387;48.112;8.616;2022-10-26T03:56:56;8.63;;;4.50;;
27744;SDS011;61387;48.112;8.616;2022-10-26T03:59:22;7.37;;;3.50;;
27744;SDS011;61387;48.112;8.616;2022-10-26T04:01:47;13.40;;;4.30;;
27744;SDS011;61387;48.112;8.616;2022-10-26T04:04:13;10.13;;;3.93;;
27744;SDS011;61387;48.112;8.616;2022-10-26T04:06:39;7.53;;;4.00;;
27744;SDS011;61387;48.112;8.616;2022-10-26T04:09:05;7.13;;;3.50;;
27744;SDS011;61387;48.112;8.616;2022-10-26T04:11:32;6.47;;;3.17;;
27744;SDS011;61387;48.112;8.616;2022-10-26T04:13:58;8.43;;;3.77;;
27744;SDS011;61387;48.112;8.616;2022-10-26T04:16:24;8.40;;;3.70;;
27744;SDS011;61387;48.112;8.616;2022-10-26T04:18:50;8.13;;;4.07;;
27744;SDS011;61387;48.112;8.616;2022-10-26T04:21:16;12.50;;;4.03;;
27744;SDS011;61387;48.112;8.616;2022-10-26T04:23:42;7.73;;;4.00;;
27744;SDS011;61387;48.112;8.616;2022-10-26T04:26:09;10.50;;;4.43;;
27744;SDS011;61387;48.112;8.616;2022-10-26T04:28:35;5.13;;;2.93;;
27744;SDS011;61387;48.112;8.616;2022-10-26T04:31:01;8.50;;;3.77;;
27744;SDS011;61387;48.112;8.616;2022-10-26T04:33:27;6.37;;;3.20;;
27744;SDS011;61387;48.112;8.616;2022-10-26T04:35:57;7.57;;;3.43;;
27744;SDS011;61387;48.112;8.616;2022-10-26T04:38:26;9.70;;;3.33;;
27744;SDS011;61387;48.112;8.616;2022-10-26T04:40:52;7.00;;;3.60;;
27744;SDS011;61387;48.112;8.616;2022-10-26T04:43:18;7.57;;;3.07;;
27744;SDS011;61387;48.112;8.616;2022-10-26T04:45:44;9.00;;;3.03;;
27744;SDS011;61387;48.112;8.616;2022-10-26T04:48:10;5.13;;;3.00;;
27744;SDS011;61387;48.112;8.616;2022-10-26T04:50:37;6.03;;;3.33;;
27744;SDS011;61387;48.112;8.616;2022-10-26T04:53:03;6.33;;;3.90;;
27744;SDS011;61387;48.112;8.616;2022-10-26T04:55:29;8.33;;;4.43;;
27744;SDS011;61387;48.112;8.616;2022-10-26T04:57:55;7.97;;;4.27;;
27744;SDS011;61387;48.112;8.616;2022-10-26T05:00:20;11.33;;;4.73;;
27744;SDS011;61387;48.112;8.616;2022-10-26T05:02:46;9.97;;;4.73;;
27744;SDS011;61387;48.112;8.616;2022-10-26T05:05:12;9.90;;;6.23;;
27744;SDS011;61387;48.112;8.616;2022-10-26T05:07:38;11.77;;;5.30;;
27744;SDS011;61387;48.112;8.616;2022-10-26T05:10:04;10.57;;;6.03;;
27744;SDS011;61387;48.112;8.616;2022-10-26T05:12:30;10.70;;;5.97;;
27744;SDS011;61387;48.112;8.616;2022-10-26T05:14:56;11.63;;;7.27;;
27744;SDS011;61387;48.112;8.616;2022-10-26T05:17:26;11.90;;;7.47;;
27744;SDS011;61387;48.112;8.616;2022-10-26T05:19:52;12.97;;;8.13;;
27744;SDS011;61387;48.112;8.616;2022-10-26T05:22:22;15.00;;;8.33;;
27744;SDS011;61387;48.112;8.616;2022-10-26T05:24:48;14.17;;;8.37;;
27744;SDS011;61387;48.112;8.616;2022-10-26T05:27:14;13.97;;;8.77;;
27744;SDS011;61387;48.112;8.616;2022-10-26T05:29:40;16.37;;;10.40;;
27744;SDS011;61387;48.112;8.616;2022-10-26T05:32:06;19.67;;;10.50;;
27744;SDS011;61387;48.112;8.616;2022-10-26T05:34:32;13.27;;;8.87;;
27744;SDS011;61387;48.112;8.616;2022-10-26T05:36:58;19.17;;;9.60;;
27744;SDS011;61387;48.112;8.616;2022-10-26T05:39:24;14.87;;;9.50;;
27744;SDS011;61387;48.112;8.616;2022-10-26T05:41:50;14.80;;;10.17;;
27744;SDS011;61387;48.112;8.616;2022-10-26T05:44:16;15.93;;;9.73;;
27744;SDS011;61387;48.112;8.616;2022-10-26T05:46:41;15.40;;;9.07;;
27744;SDS011;61387;48.112;8.616;2022-10-26T05:49:07;15.90;;;10.30;;
27744;SDS011;61387;48.112;8.616;2022-10-26T05:51:33;14.43;;;9.33;;
27744;SDS011;61387;48.112;8.616;2022-10-26T05:54:01;15.87;;;10.17;;
27744;SDS011;61387;48.112;8.616;2022-10-26T05:58:58;16.03;;;10.23;;
27744;SDS011;61387;48.112;8.616;2022-10-26T06:01:27;16.03;;;9.53;;
27744;SDS011;61387;48.112;8.616;2022-10-26T06:06:39;16.20;;;10.17;;
27744;SDS011;61387;48.112;8.616;2022-10-26T06:09:09;16.43;;;10.10;;
27744;SDS011;61387;48.112;8.616;2022-10-26T06:11:36;18.07;;;10.77;;
27744;SDS011;61387;48.112;8.616;2022-10-26T06:14:01;17.03;;;10.60;;
27744;SDS011;61387;48.112;8.616;2022-10-26T06:16:49;16.60;;;9.90;;
27744;SDS011;61387;48.112;8.616;2022-10-26T06:25:26;16.83;;;8.83;;
27744;SDS011;61387;48.112;8.616;2022-10-26T06:30:20;13.70;;;8.80;;
27744;SDS011;61387;48.112;8.616;2022-10-26T06:32:47;11.47;;;7.50;;
27744;SDS011;61387;48.112;8.616;2022-10-26T06:37:46;12.23;;;7.43;;
27744;SDS011;61387;48.112;8.616;2022-10-26T06:40:13;11.77;;;7.27;;
27744;SDS011;61387;48.112;8.616;2022-10-26T06:42:40;12.97;;;7.47;;
27744;SDS011;61387;48.112;8.616;2022-10-26T06:45:11;12.07;;;7.87;;
27744;SDS011;61387;48.112;8.616;2022-10-26T06:53:21;11.87;;;7.07;;
27744;SDS011;61387;48.112;8.616;2022-10-26T06:55:53;13.47;;;7.23;;
27744;SDS011;61387;48.112;8.616;2022-10-26T06:58:21;13.60;;;7.33;;
27744;SDS011;61387;48.112;8.616;2022-10-26T07:00:50;9.93;;;6.73;;
27744;SDS011;61387;48.112;8.616;2022-10-26T07:03:17;10.50;;;7.03;;
27744;SDS011;61387;48.112;8.616;2022-10-26T07:05:43;11.87;;;7.20;;
27744;SDS011;61387;48.112;8.616;2022-10-26T07:08:10;9.93;;;6.53;;
27744;SDS011;61387;48.112;8.616;2022-10-26T07:10:36;10.97;;;6.77;;
27744;SDS011;61387;48.112;8.616;2022-10-26T07:13:06;10.40;;;6.90;;
27744;SDS011;61387;48.112;8.616;2022-10-26T07:15:34;10.47;;;6.50;;
27744;SDS011;61387;48.112;8.616;2022-10-26T07:18:01;11.63;;;6.37;;
27744;SDS011;61387;48.112;8.616;2022-10-26T07:20:30;9.47;;;6.00;;
27744;SDS011;61387;48.112;8.616;2022-10-26T07:22:56;9.77;;;6.20;;
27744;SDS011;61387;48.112;8.616;2022-10-26T07:25:23;8.20;;;6.30;;
27744;SDS011;61387;48.112;8.616;2022-10-26T07:27:49;9.67;;;6.20;;
27744;SDS011;61387;48.112;8.616;2022-10-26T07:30:15;8.87;;;6.00;;
27744;SDS011;61387;48.112;8.616;2022-10-26T07:32:41;8.80;;;5.97;;
27744;SDS011;61387;48.112;8.616;2022-10-26T07:35:08;10.27;;;6.10;;
27744;SDS011;61387;48.112;8.616;2022-10-26T07:37:34;11.17;;;6.00;;
27744;SDS011;61387;48.112;8.616;2022-10-26T07:39:59;11.10;;;6.13;;
27744;SDS011;61387;48.112;8.616;2022-10-26T07:42:26;10.30;;;5.60;;
27744;SDS011;61387;48.112;8.616;2022-10-26T07:44:52;9.33;;;5.40;;
27744;SDS011;61387;48.112;8.616;2022-10-26T07:47:17;8.80;;;5.63;;
27744;SDS011;61387;48.112;8.616;2022-10-26T07:49:43;9.43;;;5.43;;
27744;SDS011;61387;48.112;8.616;2022-10-26T07:52:09;8.73;;;4.83;;
27744;SDS011;61387;48.112;8.616;2022-10-26T07:54:35;10.43;;;4.63;;
27744;SDS011;61387;48.112;8.616;2022-10-26T07:57:01;9.83;;;5.43;;
27744;SDS011;61387;48.112;8.616;2022-10-26T07:59:27;9.07;;;4.60;;
27744;SDS011;61387;48.112;8.616;2022-10-26T08:01:53;10.27;;;5.17;;
27744;SDS011;61387;48.112;8.616;2022-10-26T08:04:19;8.97;;;4.50;;
27744;SDS011;61387;48.112;8.616;2022-10-26T08:06:45;7.97;;;4.60;;
27744;SDS011;61387;48.112;8.616;2022-10-26T08:09:12;11.40;;;5.17;;
27744;SDS011;61387;48.112;8.616;2022-10-26T08:11:38;8.83;;;4.53;;
27744;SDS011;61387;48.112;8.616;2022-10-26T08:14:04;9.17;;;4.90;;
27744;SDS011;61387;48.112;8.616;2022-10-26T08:16:30;10.13;;;4.40;;
27744;SDS011;61387;48.112;8.616;2022-10-26T08:18:56;6.13;;;4.10;;
27744;SDS011;61387;48.112;8.616;2022-10-26T08:21:22;9.83;;;4.00;;
27744;SDS011;61387;48.112;8.616;2022-10-26T08:23:48;7.27;;;4.27;;
27744;SDS011;61387;48.112;8.616;2022-10-26T08:26:16;6.87;;;3.53;;
27744;SDS011;61387;48.112;8.616;2022-10-26T08:28:42;8.73;;;4.30;;
27744;SDS011;61387;48.112;8.616;2022-10-26T08:31:08;5.43;;;3.40;;
27744;SDS011;61387;48.112;8.616;2022-10-26T08:33:34;6.93;;;3.70;;
27744;SDS011;61387;48.112;8.616;2022-10-26T08:36:03;9.17;;;4.00;;
27744;SDS011;61387;48.112;8.616;2022-10-26T08:38:29;12.03;;;4.37;;
27744;SDS011;61387;48.112;8.616;2022-10-26T08:40:57;8.97;;;4.10;;
27744;SDS011;61387;48.112;8.616;2022-10-26T08:43:45;8.07;;;3.67;;
27744;SDS011;61387;48.112;8.616;2022-10-26T08:46:20;7.13;;;4.13;;
27744;SDS011;61387;48.112;8.616;2022-10-26T08:49:14;9.43;;;3.97;;
27744;SDS011;61387;48.112;8.616;2022-10-26T08:51:46;10.30;;;3.93;;
27744;SDS011;61387;48.112;8.616;2022-10-26T08:54:19;7.07;;;3.90;;
27744;SDS011;61387;48.112;8.616;2022-10-26T08:57:12;6.83;;;3.40;;
27744;SDS011;61387;48.112;8.616;2022-10-26T08:59:54;8.83;;;3.50;;
27744;SDS011;61387;48.112;8.616;2022-10-26T09:02:23;12.13;;;3.83;;
27744;SDS011;61387;48.112;8.616;2022-10-26T09:04:49;6.00;;;3.17;;
27744;SDS011;61387;48.112;8.616;2022-10-26T09:12:57;7.40;;;3.70;;
27744;SDS011;61387;48.112;8.616;2022-10-26T09:15:27;5.37;;;2.80;;
27744;SDS011;61387;48.112;8.616;2022-10-26T09:18:19;8.87;;;2.93;;
27744;SDS011;61387;48.112;8.616;2022-10-26T09:23:50;8.60;;;2.87;;
27744;SDS011;61387;48.112;8.616;2022-10-26T09:26:32;9.47;;;4.00;;
27744;SDS011;61387;48.112;8.616;2022-10-26T09:29:05;9.83;;;6.47;;
27744;SDS011;61387;48.112;8.616;2022-10-26T09:31:46;7.33;;;3.90;;
27744;SDS011;61387;48.112;8.616;2022-10-26T09:34:28;7.23;;;2.43;;
27744;SDS011;61387;48.112;8.616;2022-10-26T09:37:00;7.53;;;3.00;;
27744;SDS011;61387;48.112;8.616;2022-10-26T09:42:39;5.80;;;2.70;;
27744;SDS011;61387;48.112;8.616;2022-10-26T09:45:22;7.30;;;2.80;;
27744;SDS011;61387;48.112;8.616;2022-10-26T09:47:53;6.97;;;2.60;;
27744;SDS011;61387;48.112;8.616;2022-10-26T09:50:33;8.77;;;2.90;;
27744;SDS011;61387;48.112;8.616;2022-10-26T09:53:01;7.07;;;3.17;;
27744;SDS011;61387;48.112;8.616;2022-10-26T09:55:27;6.93;;;2.60;;
27744;SDS011;61387;48.112;8.616;2022-10-26T09:58:00;7.37;;;2.60;;
27744;SDS011;61387;48.112;8.616;2022-10-26T10:00:27;6.63;;;2.60;;
27744;SDS011;61387;48.112;8.616;2022-10-26T10:02:55;8.77;;;2.43;;
27744;SDS011;61387;48.112;8.616;2022-10-26T10:08:17;8.43;;;3.00;;
27744;SDS011;61387;48.112;8.616;2022-10-26T10:10:56;12.18;;;3.08;;
27744;SDS011;61387;48.112;8.616;2022-10-26T10:13:24;9.77;;;2.83;;
27744;SDS011;61387;48.112;8.616;2022-10-26T10:15:53;10.13;;;2.80;;
27744;SDS011;61387;48.112;8.616;2022-10-26T10:18:29;6.83;;;2.73;;
27744;SDS011;61387;48.112;8.616;2022-10-26T10:20:55;9.10;;;2.43;;
27744;SDS011;61387;48.112;8.616;2022-10-26T10:24:10;9.93;;;3.57;;
27744;SDS011;61387;48.112;8.616;2022-10-26T10:26:18;10.43;;;3.00;;
27744;SDS011;61387;48.112;8.616;2022-10-26T10:28:55;8.43;;;2.50;;
27744;SDS011;61387;48.112;8.616;2022-10-26T10:31:26;5.57;;;2.28;;
27744;SDS011;61387;48.112;8.616;2022-10-26T10:33:56;8.70;;;2.57;;
27744;SDS011;61387;48.112;8.616;2022-10-26T10:36:22;5.97;;;2.33;;
27744;SDS011;61387;48.112;8.616;2022-10-26T10:38:54;8.40;;;2.83;;
27744;SDS011;61387;48.112;8.616;2022-10-26T10:41:23;9.90;;;2.45;;
27744;SDS011;61387;48.112;8.616;2022-10-26T10:46:40;5.82;;;2.62;;
27744;SDS011;61387;48.112;8.616;2022-10-26T10:49:14;8.27;;;2.20;;
27744;SDS011;61387;48.112;8.616;2022-10-26T10:51:44;7.70;;;2.72;;
27744;SDS011;61387;48.112;8.616;2022-10-26T10:54:17;8.43;;;2.30;;
27744;SDS011;61387;48.112;8.616;2022-10-26T10:56:52;8.48;;;2.58;;
27744;SDS011;61387;48.112;8.616;2022-10-26T10:59:32;6.80;;;2.55;;
27744;SDS011;61387;48.112;8.616;2022-10-26T11:07:28;7.75;;;2.80;;
27744;SDS011;61387;48.112;8.616;2022-10-26T11:09:56;8.00;;;2.78;;
27744;SDS011;61387;48.112;8.616;2022-10-26T11:12:28;9.70;;;2.70;;
27744;SDS011;61387;48.112;8.616;2022-10-26T11:14:58;4.95;;;2.47;;
27744;SDS011;61387;48.112;8.616;2022-10-26T11:17:31;10.10;;;2.92;;
27744;SDS011;61387;48.112;8.616;2022-10-26T11:20:21;4.93;;;2.10;;
27744;SDS011;61387;48.112;8.616;2022-10-26T11:25:21;9.38;;;2.53;;
27744;SDS011;61387;48.112;8.616;2022-10-26T11:27:53;8.35;;;2.42;;
27744;SDS011;61387;48.112;8.616;2022-10-26T11:30:21;7.75;;;2.70;;
27744;SDS011;61387;48.112;8.616;2022-10-26T11:35:48;6.47;;;2.47;;
27744;SDS011;61387;48.112;8.616;2022-10-26T11:40:56;9.18;;;2.50;;
27744;SDS011;61387;48.112;8.616;2022-10-26T11:51:48;12.88;;;2.60;;
27744;SDS011;61387;48.112;8.616;2022-10-26T11:54:41;8.13;;;2.70;;
27744;SDS011;61387;48.112;8.616;2022-10-26T11:57:16;9.45;;;3.03;;
27744;SDS011;61387;48.112;8.616;2022-10-26T12:00:02;9.65;;;2.80;;
27744;SDS011;61387;48.112;8.616;2022-10-26T12:02:31;9.43;;;2.87;;
27744;SDS011;61387;48.112;8.616;2022-10-26T12:07:33;11.00;;;2.40;;
27744;SDS011;61387;48.112;8.616;2022-10-26T12:10:02;8.98;;;3.17;;
27744;SDS011;61387;48.112;8.616;2022-10-26T12:12:34;10.95;;;3.00;;
27744;SDS011;61387;48.112;8.616;2022-10-26T12:22:40;9.70;;;2.73;;
27744;SDS011;61387;48.112;8.616;2022-10-26T12:35:30;8.73;;;3.30;;
27744;SDS011;61387;48.112;8.616;2022-10-26T12:38:00;10.57;;;2.62;;
27744;SDS011;61387;48.112;8.616;2022-10-26T12:40:47;7.75;;;2.62;;
27744;SDS011;61387;48.112;8.616;2022-10-26T12:45:43;9.20;;;2.45;;
27744;SDS011;61387;48.112;8.616;2022-10-26T12:56:44;7.60;;;2.87;;
27744;SDS011;61387;48.112;8.616;2022-10-26T13:02:14;9.50;;;2.87;;
27744;SDS011;61387;48.112;8.616;2022-10-26T13:07:38;8.23;;;2.37;;
27744;SDS011;61387;48.112;8.616;2022-10-26T13:12:52;13.10;;;2.92;;
27744;SDS011;61387;48.112;8.616;2022-10-26T13:18:18;12.65;;;2.85;;
27744;SDS011;61387;48.112;8.616;2022-10-26T13:21:05;9.45;;;2.65;;
27744;SDS011;61387;48.112;8.616;2022-10-26T13:23:39;7.25;;;2.75;;
27744;SDS011;61387;48.112;8.616;2022-10-26T13:26:15;7.95;;;2.58;;
27744;SDS011;61387;48.112;8.616;2022-10-26T13:34:35;6.47;;;2.50;;
27744;SDS011;61387;48.112;8.616;2022-10-26T13:36:44;9.18;;;2.78;;
27744;SDS011;61387;48.112;8.616;2022-10-26T13:39:31;7.90;;;2.50;;
27744;SDS011;61387;48.112;8.616;2022-10-26T13:42:01;11.68;;;3.15;;
27744;SDS011;61387;48.112;8.616;2022-10-26T13:45:14;10.43;;;2.70;;
27744;SDS011;61387;48.112;8.616;2022-10-26T13:50:13;6.80;;;2.47;;
27744;SDS011;61387;48.112;8.616;2022-10-26T13:52:42;8.70;;;3.00;;
27744;SDS011;61387;48.112;8.616;2022-10-26T13:55:17;9.30;;;2.85;;
27744;SDS011;61387;48.112;8.616;2022-10-26T13:57:54;11.77;;;2.33;;
27744;SDS011;61387;48.112;8.616;2022-10-26T14:03:35;9.63;;;2.62;;
27744;SDS011;61387;48.112;8.616;2022-10-26T14:09:13;9.23;;;2.95;;
27744;SDS011;61387;48.112;8.616;2022-10-26T14:14:36;7.62;;;2.35;;
27744;SDS011;61387;48.112;8.616;2022-10-26T14:17:03;9.50;;;2.70;;
27744;SDS011;61387;48.112;8.616;2022-10-26T14:19:30;7.97;;;2.42;;
27744;SDS011;61387;48.112;8.616;2022-10-26T14:22:01;7.22;;;2.45;;
27744;SDS011;61387;48.112;8.616;2022-10-26T14:24:31;10.88;;;3.00;;
27744;SDS011;61387;48.112;8.616;2022-10-26T14:27:01;9.40;;;2.22;;
27744;SDS011;61387;48.112;8.616;2022-10-26T14:29:30;5.95;;;2.15;;
27744;SDS011;61387;48.112;8.616;2022-10-26T14:31:56;6.93;;;2.05;;
27744;SDS011;61387;48.112;8.616;2022-10-26T14:34:22;8.20;;;2.70;;
27744;SDS011;61387;48.112;8.616;2022-10-26T14:36:52;7.53;;;2.67;;
27744;SDS011;61387;48.112;8.616;2022-10-26T14:39:28;6.07;;;2.58;;
27744;SDS011;61387;48.112;8.616;2022-10-26T14:44:59;8.73;;;2.28;;
27744;SDS011;61387;48.112;8.616;2022-10-26T14:47:26;11.23;;;2.67;;
27744;SDS011;61387;48.112;8.616;2022-10-26T14:49:54;7.50;;;2.45;;
27744;SDS011;61387;48.112;8.616;2022-10-26T14:52:38;5.55;;;2.22;;
27744;SDS011;61387;48.112;8.616;2022-10-26T14:55:12;6.87;;;2.33;;
27744;SDS011;61387;48.112;8.616;2022-10-26T14:57:39;7.78;;;2.92;;
27744;SDS011;61387;48.112;8.616;2022-10-26T15:02:35;6.53;;;2.67;;
27744;SDS011;61387;48.112;8.616;2022-10-26T15:05:03;9.63;;;2.20;;
27744;SDS011;61387;48.112;8.616;2022-10-26T15:07:44;8.10;;;2.47;;
27744;SDS011;61387;48.112;8.616;2022-10-26T15:13:08;9.32;;;2.70;;
27744;SDS011;61387;48.112;8.616;2022-10-26T15:15:46;7.85;;;2.30;;
27744;SDS011;61387;48.112;8.616;2022-10-26T15:18:22;6.85;;;2.50;;
27744;SDS011;61387;48.112;8.616;2022-10-26T15:20:49;11.77;;;2.70;;
27744;SDS011;61387;48.112;8.616;2022-10-26T15:23:15;8.93;;;2.65;;
27744;SDS011;61387;48.112;8.616;2022-10-26T15:25:49;11.88;;;2.37;;
27744;SDS011;61387;48.112;8.616;2022-10-26T15:28:30;10.57;;;3.17;;
27744;SDS011;61387;48.112;8.616;2022-10-26T15:33:35;6.67;;;2.33;;
27744;SDS011;61387;48.112;8.616;2022-10-26T15:38:32;10.50;;;3.37;;
27744;SDS011;61387;48.112;8.616;2022-10-26T15:40:58;6.28;;;2.28;;
27744;SDS011;61387;48.112;8.616;2022-10-26T15:43:24;7.57;;;2.50;;
27744;SDS011;61387;48.112;8.616;2022-10-26T15:45:50;9.03;;;2.47;;
27744;SDS011;61387;48.112;8.616;2022-10-26T15:48:24;9.32;;;2.35;;
27744;SDS011;61387;48.112;8.616;2022-10-26T15:50:54;8.43;;;2.55;;
27744;SDS011;61387;48.112;8.616;2022-10-26T15:53:20;12.05;;;2.58;;
27744;SDS011;61387;48.112;8.616;2022-10-26T15:55:51;10.33;;;3.10;;
27744;SDS011;61387;48.112;8.616;2022-10-26T15:58:18;8.80;;;2.95;;
27744;SDS011;61387;48.112;8.616;2022-10-26T16:00:44;11.17;;;2.73;;
27744;SDS011;61387;48.112;8.616;2022-10-26T16:03:11;8.27;;;2.30;;
27744;SDS011;61387;48.112;8.616;2022-10-26T16:05:45;13.43;;;2.80;;
27744;SDS011;61387;48.112;8.616;2022-10-26T16:08:12;6.07;;;2.53;;
27744;SDS011;61387;48.112;8.616;2022-10-26T16:10:40;11.07;;;3.50;;
27744;SDS011;61387;48.112;8.616;2022-10-26T16:13:11;12.37;;;4.77;;
27744;SDS011;61387;48.112;8.616;2022-10-26T16:15:37;8.43;;;3.10;;
27744;SDS011;61387;48.112;8.616;2022-10-26T16:18:03;7.17;;;2.90;;
27744;SDS011;61387;48.112;8.616;2022-10-26T16:20:29;7.23;;;2.63;;
27744;SDS011;61387;48.112;8.616;2022-10-26T16:22:55;13.13;;;2.97;;
27744;SDS011;61387;48.112;8.616;2022-10-26T16:25:24;9.07;;;3.23;;
27744;SDS011;61387;48.112;8.616;2022-10-26T16:27:51;10.93;;;3.20;;
27744;SDS011;61387;48.112;8.616;2022-10-26T16:30:18;9.97;;;3.13;;
27744;SDS011;61387;48.112;8.616;2022-10-26T16:32:44;9.43;;;3.30;;
27744;SDS011;61387;48.112;8.616;2022-10-26T16:35:11;8.20;;;3.20;;
27744;SDS011;61387;48.112;8.616;2022-10-26T16:37:37;13.37;;;3.50;;
27744;SDS011;61387;48.112;8.616;2022-10-26T16:40:03;12.43;;;5.13;;
27744;SDS011;61387;48.112;8.616;2022-10-26T16:42:30;8.50;;;4.33;;
27744;SDS011;61387;48.112;8.616;2022-10-26T16:44:56;10.57;;;4.40;;
27744;SDS011;61387;48.112;8.616;2022-10-26T16:47:22;15.37;;;4.80;;
27744;SDS011;61387;48.112;8.616;2022-10-26T16:49:48;25.47;;;11.17;;
27744;SDS011;61387;48.112;8.616;2022-10-26T16:52:14;28.63;;;12.47;;
27744;SDS011;61387;48.112;8.616;2022-10-26T16:54:40;21.93;;;11.13;;
27744;SDS011;61387;48.112;8.616;2022-10-26T16:57:06;21.47;;;10.40;;
27744;SDS011;61387;48.112;8.616;2022-10-26T16:59:32;14.77;;;6.63;;
27744;SDS011;61387;48.112;8.616;2022-10-26T17:01:58;17.23;;;8.00;;
27744;SDS011;61387;48.112;8.616;2022-10-26T17:04:24;14.93;;;7.30;;
27744;SDS011;61387;48.112;8.616;2022-10-26T17:06:50;12.23;;;6.97;;
27744;SDS011;61387;48.112;8.616;2022-10-26T17:09:16;16.17;;;7.10;;
27744;SDS011;61387;48.112;8.616;2022-10-26T17:11:42;18.20;;;7.93;;
27744;SDS011;61387;48.112;8.616;2022-10-26T17:14:07;19.80;;;9.20;;
27744;SDS011;61387;48.112;8.616;2022-10-26T17:16:33;17.40;;;8.97;;
27744;SDS011;61387;48.112;8.616;2022-10-26T17:18:59;16.23;;;7.33;;
27744;SDS011;61387;48.112;8.616;2022-10-26T17:21:27;17.43;;;8.17;;
27744;SDS011;61387;48.112;8.616;2022-10-26T17:23:54;18.40;;;10.37;;